sensor_id;sensor_type;location;lat;lon;timestamp;P1;durP1;ratioP1;P2;durP2;ratioP2
42912;SDS011;50720;54.324;18.558;2023-02-15T00:01:26;18.45;;;11.77;;
42912;SDS011;50720;54.324;18.558;2023-02-15T00:03:56;21.30;;;11.43;;
42912;SDS011;50720;54.324;18.558;2023-02-15T00:06:25;20.45;;;11.75;;
42912;SDS011;50720;54.324;18.558;2023-02-15T00:08:55;21.13;;;12.70;;
42912;SDS011;50720;54.324;18.558;2023-02-15T00:11:26;19.27;;;11.50;;
42912;SDS011;50720;54.324;18.558;2023-02-15T00:14:10;18.33;;;12.18;;
42912;SDS011;50720;54.324;18.558;2023-02-15T00:16:42;25.50;;;13.18;;
42912;SDS011;50720;54.324;18.558;2023-02-15T00:21:43;24.57;;;12.23;;
42912;SDS011;50720;54.324;18.558;2023-02-15T00:24:13;24.65;;;12.80;;
42912;SDS011;50720;54.324;18.558;2023-02-15T00:26:46;19.73;;;11.57;;
42912;SDS011;50720;54.324;18.558;2023-02-15T00:29:18;19.35;;;12.75;;
42912;SDS011;50720;54.324;18.558;2023-02-15T00:31:47;18.75;;;11.25;;
42912;SDS011;50720;54.324;18.558;2023-02-15T00:34:19;19.65;;;12.80;;
42912;SDS011;50720;54.324;18.558;2023-02-15T00:36:49;22.55;;;12.55;;
42912;SDS011;50720;54.324;18.558;2023-02-15T00:39:19;24.03;;;13.80;;
42912;SDS011;50720;54.324;18.558;2023-02-15T00:41:50;26.30;;;15.13;;
42912;SDS011;50720;54.324;18.558;2023-02-15T00:44:20;26.38;;;14.15;;
42912;SDS011;50720;54.324;18.558;2023-02-15T00:46:49;27.20;;;15.90;;
42912;SDS011;50720;54.324;18.558;2023-02-15T00:49:19;25.55;;;14.48;;
42912;SDS011;50720;54.324;18.558;2023-02-15T00:51:48;29.95;;;16.13;;
42912;SDS011;50720;54.324;18.558;2023-02-15T00:54:18;31.25;;;16.10;;
42912;SDS011;50720;54.324;18.558;2023-02-15T00:56:48;27.45;;;15.23;;
42912;SDS011;50720;54.324;18.558;2023-02-15T00:59:19;30.63;;;15.95;;
42912;SDS011;50720;54.324;18.558;2023-02-15T01:01:49;27.58;;;16.27;;
42912;SDS011;50720;54.324;18.558;2023-02-15T01:04:18;39.15;;;21.33;;
42912;SDS011;50720;54.324;18.558;2023-02-15T01:06:47;27.15;;;15.50;;
42912;SDS011;50720;54.324;18.558;2023-02-15T01:09:18;29.23;;;16.83;;
42912;SDS011;50720;54.324;18.558;2023-02-15T01:11:47;34.05;;;17.65;;
42912;SDS011;50720;54.324;18.558;2023-02-15T01:14:19;28.17;;;16.35;;
42912;SDS011;50720;54.324;18.558;2023-02-15T01:16:48;29.35;;;16.50;;
42912;SDS011;50720;54.324;18.558;2023-02-15T01:19:18;32.33;;;15.85;;
42912;SDS011;50720;54.324;18.558;2023-02-15T01:21:47;26.77;;;16.15;;
42912;SDS011;50720;54.324;18.558;2023-02-15T01:24:17;29.52;;;16.45;;
42912;SDS011;50720;54.324;18.558;2023-02-15T01:26:46;28.88;;;15.45;;
42912;SDS011;50720;54.324;18.558;2023-02-15T01:29:16;26.02;;;15.30;;
42912;SDS011;50720;54.324;18.558;2023-02-15T01:31:46;32.70;;;15.82;;
42912;SDS011;50720;54.324;18.558;2023-02-15T01:34:16;32.80;;;16.45;;
42912;SDS011;50720;54.324;18.558;2023-02-15T01:36:46;25.80;;;16.40;;
42912;SDS011;50720;54.324;18.558;2023-02-15T01:39:16;29.40;;;17.63;;
42912;SDS011;50720;54.324;18.558;2023-02-15T01:41:46;31.02;;;17.60;;
42912;SDS011;50720;54.324;18.558;2023-02-15T01:47:20;28.70;;;16.50;;
42912;SDS011;50720;54.324;18.558;2023-02-15T01:50:00;28.60;;;15.68;;
42912;SDS011;50720;54.324;18.558;2023-02-15T01:52:34;23.58;;;14.15;;
42912;SDS011;50720;54.324;18.558;2023-02-15T01:55:09;26.52;;;15.88;;
42912;SDS011;50720;54.324;18.558;2023-02-15T01:57:39;30.58;;;15.48;;
42912;SDS011;50720;54.324;18.558;2023-02-15T02:00:11;29.10;;;16.17;;
42912;SDS011;50720;54.324;18.558;2023-02-15T02:02:45;28.20;;;17.00;;
42912;SDS011;50720;54.324;18.558;2023-02-15T02:05:17;33.92;;;16.38;;
42912;SDS011;50720;54.324;18.558;2023-02-15T02:07:47;29.30;;;16.50;;
42912;SDS011;50720;54.324;18.558;2023-02-15T02:10:21;29.65;;;17.13;;
42912;SDS011;50720;54.324;18.558;2023-02-15T02:12:52;36.38;;;17.42;;
42912;SDS011;50720;54.324;18.558;2023-02-15T02:15:29;31.08;;;17.38;;
42912;SDS011;50720;54.324;18.558;2023-02-15T02:23:49;31.58;;;16.67;;
42912;SDS011;50720;54.324;18.558;2023-02-15T02:26:36;31.48;;;17.80;;
42912;SDS011;50720;54.324;18.558;2023-02-15T02:35:33;31.63;;;17.27;;
42912;SDS011;50720;54.324;18.558;2023-02-15T02:38:11;33.75;;;16.80;;
42912;SDS011;50720;54.324;18.558;2023-02-15T02:40:49;33.83;;;18.20;;
42912;SDS011;50720;54.324;18.558;2023-02-15T02:43:25;29.63;;;17.40;;
42912;SDS011;50720;54.324;18.558;2023-02-15T02:46:02;33.67;;;17.88;;
42912;SDS011;50720;54.324;18.558;2023-02-15T02:48:37;35.63;;;19.08;;
42912;SDS011;50720;54.324;18.558;2023-02-15T02:51:09;37.72;;;19.10;;
42912;SDS011;50720;54.324;18.558;2023-02-15T02:56:09;29.70;;;15.95;;
42912;SDS011;50720;54.324;18.558;2023-02-15T02:58:47;36.63;;;17.45;;
42912;SDS011;50720;54.324;18.558;2023-02-15T03:01:20;36.15;;;17.27;;
42912;SDS011;50720;54.324;18.558;2023-02-15T03:03:55;37.50;;;16.77;;
42912;SDS011;50720;54.324;18.558;2023-02-15T03:06:30;32.47;;;17.30;;
42912;SDS011;50720;54.324;18.558;2023-02-15T03:09:06;31.67;;;17.67;;
42912;SDS011;50720;54.324;18.558;2023-02-15T03:11:42;32.03;;;17.00;;
42912;SDS011;50720;54.324;18.558;2023-02-15T03:14:13;35.53;;;19.92;;
42912;SDS011;50720;54.324;18.558;2023-02-15T03:16:45;34.03;;;17.10;;
42912;SDS011;50720;54.324;18.558;2023-02-15T03:19:17;32.00;;;16.75;;
42912;SDS011;50720;54.324;18.558;2023-02-15T03:21:51;30.90;;;16.58;;
42912;SDS011;50720;54.324;18.558;2023-02-15T03:24:32;33.22;;;15.35;;
42912;SDS011;50720;54.324;18.558;2023-02-15T03:27:04;38.00;;;16.60;;
42912;SDS011;50720;54.324;18.558;2023-02-15T03:29:36;34.22;;;16.70;;
42912;SDS011;50720;54.324;18.558;2023-02-15T03:32:07;35.50;;;16.88;;
42912;SDS011;50720;54.324;18.558;2023-02-15T03:34:40;25.85;;;15.15;;
42912;SDS011;50720;54.324;18.558;2023-02-15T03:37:13;30.23;;;16.77;;
42912;SDS011;50720;54.324;18.558;2023-02-15T03:39:49;30.35;;;16.80;;
42912;SDS011;50720;54.324;18.558;2023-02-15T03:42:24;29.92;;;16.45;;
42912;SDS011;50720;54.324;18.558;2023-02-15T03:44:57;29.48;;;16.75;;
42912;SDS011;50720;54.324;18.558;2023-02-15T03:47:31;34.58;;;17.77;;
42912;SDS011;50720;54.324;18.558;2023-02-15T03:50:04;35.95;;;17.98;;
42912;SDS011;50720;54.324;18.558;2023-02-15T03:52:58;35.30;;;18.95;;
42912;SDS011;50720;54.324;18.558;2023-02-15T03:55:30;38.78;;;19.67;;
42912;SDS011;50720;54.324;18.558;2023-02-15T03:58:00;34.47;;;19.77;;
42912;SDS011;50720;54.324;18.558;2023-02-15T04:00:48;33.08;;;16.55;;
42912;SDS011;50720;54.324;18.558;2023-02-15T04:03:40;28.00;;;16.20;;
42912;SDS011;50720;54.324;18.558;2023-02-15T04:06:12;30.83;;;16.23;;
42912;SDS011;50720;54.324;18.558;2023-02-15T04:08:43;30.33;;;16.05;;
42912;SDS011;50720;54.324;18.558;2023-02-15T04:11:30;39.38;;;17.83;;
42912;SDS011;50720;54.324;18.558;2023-02-15T04:14:00;28.88;;;15.23;;
42912;SDS011;50720;54.324;18.558;2023-02-15T04:16:50;31.27;;;16.17;;
42912;SDS011;50720;54.324;18.558;2023-02-15T04:19:19;30.52;;;15.30;;
42912;SDS011;50720;54.324;18.558;2023-02-15T04:22:06;25.38;;;16.10;;
42912;SDS011;50720;54.324;18.558;2023-02-15T04:24:54;32.40;;;15.05;;
42912;SDS011;50720;54.324;18.558;2023-02-15T04:27:41;33.40;;;14.38;;
42912;SDS011;50720;54.324;18.558;2023-02-15T04:30:12;29.00;;;15.38;;
42912;SDS011;50720;54.324;18.558;2023-02-15T04:32:43;28.70;;;15.98;;
42912;SDS011;50720;54.324;18.558;2023-02-15T04:35:13;28.75;;;14.85;;
42912;SDS011;50720;54.324;18.558;2023-02-15T04:37:44;25.65;;;14.68;;
42912;SDS011;50720;54.324;18.558;2023-02-15T04:40:15;22.45;;;13.15;;
42912;SDS011;50720;54.324;18.558;2023-02-15T04:42:47;22.30;;;14.13;;
42912;SDS011;50720;54.324;18.558;2023-02-15T04:45:17;26.85;;;14.40;;
42912;SDS011;50720;54.324;18.558;2023-02-15T04:47:47;30.73;;;13.48;;
42912;SDS011;50720;54.324;18.558;2023-02-15T04:50:17;24.27;;;13.77;;
42912;SDS011;50720;54.324;18.558;2023-02-15T04:52:46;27.92;;;13.60;;
42912;SDS011;50720;54.324;18.558;2023-02-15T04:55:17;25.33;;;12.35;;
42912;SDS011;50720;54.324;18.558;2023-02-15T05:00:16;28.90;;;13.32;;
42912;SDS011;50720;54.324;18.558;2023-02-15T05:02:46;23.00;;;12.18;;
42912;SDS011;50720;54.324;18.558;2023-02-15T05:05:16;24.90;;;12.98;;
42912;SDS011;50720;54.324;18.558;2023-02-15T05:07:46;24.38;;;11.95;;
42912;SDS011;50720;54.324;18.558;2023-02-15T05:10:15;25.65;;;12.75;;
42912;SDS011;50720;54.324;18.558;2023-02-15T05:12:47;21.55;;;12.40;;
42912;SDS011;50720;54.324;18.558;2023-02-15T05:15:16;24.08;;;12.70;;
42912;SDS011;50720;54.324;18.558;2023-02-15T05:17:46;22.27;;;12.43;;
42912;SDS011;50720;54.324;18.558;2023-02-15T05:20:15;28.50;;;14.73;;
42912;SDS011;50720;54.324;18.558;2023-02-15T05:22:45;28.10;;;14.63;;
42912;SDS011;50720;54.324;18.558;2023-02-15T05:25:15;25.75;;;12.18;;
42912;SDS011;50720;54.324;18.558;2023-02-15T05:28:03;19.08;;;12.23;;
42912;SDS011;50720;54.324;18.558;2023-02-15T05:30:48;22.73;;;12.73;;
42912;SDS011;50720;54.324;18.558;2023-02-15T05:33:20;31.08;;;13.52;;
42912;SDS011;50720;54.324;18.558;2023-02-15T05:35:49;22.50;;;11.50;;
42912;SDS011;50720;54.324;18.558;2023-02-15T05:38:19;24.25;;;11.23;;
42912;SDS011;50720;54.324;18.558;2023-02-15T05:40:50;19.83;;;11.50;;
42912;SDS011;50720;54.324;18.558;2023-02-15T05:45:50;20.47;;;11.17;;
42912;SDS011;50720;54.324;18.558;2023-02-15T05:48:23;21.13;;;11.80;;
42912;SDS011;50720;54.324;18.558;2023-02-15T05:50:56;27.40;;;12.13;;
42912;SDS011;50720;54.324;18.558;2023-02-15T05:53:27;21.20;;;11.95;;
42912;SDS011;50720;54.324;18.558;2023-02-15T05:55:58;21.20;;;12.10;;
42912;SDS011;50720;54.324;18.558;2023-02-15T05:58:30;21.73;;;11.35;;
42912;SDS011;50720;54.324;18.558;2023-02-15T06:01:06;27.08;;;12.73;;
42912;SDS011;50720;54.324;18.558;2023-02-15T06:03:37;23.58;;;13.52;;
42912;SDS011;50720;54.324;18.558;2023-02-15T06:06:07;23.33;;;12.73;;
42912;SDS011;50720;54.324;18.558;2023-02-15T06:08:37;27.80;;;14.45;;
42912;SDS011;50720;54.324;18.558;2023-02-15T06:11:07;30.75;;;15.48;;
42912;SDS011;50720;54.324;18.558;2023-02-15T06:13:38;29.02;;;14.82;;
42912;SDS011;50720;54.324;18.558;2023-02-15T06:16:07;28.88;;;13.48;;
42912;SDS011;50720;54.324;18.558;2023-02-15T06:18:37;32.78;;;15.60;;
42912;SDS011;50720;54.324;18.558;2023-02-15T06:21:07;27.35;;;14.15;;
42912;SDS011;50720;54.324;18.558;2023-02-15T06:23:37;31.48;;;15.70;;
42912;SDS011;50720;54.324;18.558;2023-02-15T06:26:06;29.17;;;16.10;;
42912;SDS011;50720;54.324;18.558;2023-02-15T06:28:38;27.05;;;15.52;;
42912;SDS011;50720;54.324;18.558;2023-02-15T06:31:08;26.85;;;14.95;;
42912;SDS011;50720;54.324;18.558;2023-02-15T06:33:38;28.88;;;13.55;;
42912;SDS011;50720;54.324;18.558;2023-02-15T06:36:08;25.23;;;14.23;;
42912;SDS011;50720;54.324;18.558;2023-02-15T06:38:38;25.55;;;14.27;;
42912;SDS011;50720;54.324;18.558;2023-02-15T06:41:07;25.85;;;14.45;;
42912;SDS011;50720;54.324;18.558;2023-02-15T06:43:43;29.50;;;15.32;;
42912;SDS011;50720;54.324;18.558;2023-02-15T06:46:13;25.23;;;14.30;;
42912;SDS011;50720;54.324;18.558;2023-02-15T06:48:42;24.20;;;13.38;;
42912;SDS011;50720;54.324;18.558;2023-02-15T06:51:12;25.65;;;15.35;;
42912;SDS011;50720;54.324;18.558;2023-02-15T06:53:41;28.95;;;13.82;;
42912;SDS011;50720;54.324;18.558;2023-02-15T06:56:11;29.27;;;14.93;;
42912;SDS011;50720;54.324;18.558;2023-02-15T06:58:41;24.80;;;15.55;;
42912;SDS011;50720;54.324;18.558;2023-02-15T07:01:14;22.83;;;13.90;;
42912;SDS011;50720;54.324;18.558;2023-02-15T07:03:44;21.98;;;12.73;;
42912;SDS011;50720;54.324;18.558;2023-02-15T07:06:13;23.88;;;12.50;;
42912;SDS011;50720;54.324;18.558;2023-02-15T07:08:43;26.58;;;14.05;;
42912;SDS011;50720;54.324;18.558;2023-02-15T07:11:13;27.15;;;14.30;;
42912;SDS011;50720;54.324;18.558;2023-02-15T07:13:59;26.63;;;12.98;;
42912;SDS011;50720;54.324;18.558;2023-02-15T07:16:30;28.63;;;13.45;;
42912;SDS011;50720;54.324;18.558;2023-02-15T07:19:00;22.25;;;12.75;;
42912;SDS011;50720;54.324;18.558;2023-02-15T07:21:30;26.50;;;13.63;;
42912;SDS011;50720;54.324;18.558;2023-02-15T07:24:00;27.00;;;13.60;;
42912;SDS011;50720;54.324;18.558;2023-02-15T07:26:30;25.70;;;13.95;;
42912;SDS011;50720;54.324;18.558;2023-02-15T07:29:00;22.35;;;12.90;;
42912;SDS011;50720;54.324;18.558;2023-02-15T07:31:31;26.83;;;13.60;;
42912;SDS011;50720;54.324;18.558;2023-02-15T07:34:01;24.20;;;13.02;;
42912;SDS011;50720;54.324;18.558;2023-02-15T07:36:30;23.15;;;13.10;;
42912;SDS011;50720;54.324;18.558;2023-02-15T07:39:00;23.63;;;13.70;;
42912;SDS011;50720;54.324;18.558;2023-02-15T07:41:30;20.85;;;12.65;;
42912;SDS011;50720;54.324;18.558;2023-02-15T07:43:59;22.40;;;12.75;;
42912;SDS011;50720;54.324;18.558;2023-02-15T07:46:29;23.77;;;13.45;;
42912;SDS011;50720;54.324;18.558;2023-02-15T07:49:00;27.23;;;14.82;;
42912;SDS011;50720;54.324;18.558;2023-02-15T07:51:30;26.60;;;13.93;;
42912;SDS011;50720;54.324;18.558;2023-02-15T07:54:00;28.58;;;14.50;;
42912;SDS011;50720;54.324;18.558;2023-02-15T07:56:30;27.77;;;15.73;;
42912;SDS011;50720;54.324;18.558;2023-02-15T07:59:03;22.67;;;12.70;;
42912;SDS011;50720;54.324;18.558;2023-02-15T08:01:34;23.77;;;13.68;;
42912;SDS011;50720;54.324;18.558;2023-02-15T08:04:06;25.50;;;13.95;;
42912;SDS011;50720;54.324;18.558;2023-02-15T08:06:37;29.35;;;15.23;;
42912;SDS011;50720;54.324;18.558;2023-02-15T08:09:07;27.42;;;14.98;;
42912;SDS011;50720;54.324;18.558;2023-02-15T08:11:37;32.65;;;16.50;;
42912;SDS011;50720;54.324;18.558;2023-02-15T08:14:09;31.27;;;17.10;;
42912;SDS011;50720;54.324;18.558;2023-02-15T08:16:42;29.77;;;15.15;;
42912;SDS011;50720;54.324;18.558;2023-02-15T08:19:14;28.33;;;14.02;;
42912;SDS011;50720;54.324;18.558;2023-02-15T08:21:46;28.52;;;15.18;;
42912;SDS011;50720;54.324;18.558;2023-02-15T08:24:17;22.65;;;13.43;;
42912;SDS011;50720;54.324;18.558;2023-02-15T08:26:48;29.00;;;14.68;;
42912;SDS011;50720;54.324;18.558;2023-02-15T08:29:20;24.50;;;13.40;;
42912;SDS011;50720;54.324;18.558;2023-02-15T08:31:54;26.63;;;14.40;;
42912;SDS011;50720;54.324;18.558;2023-02-15T08:34:26;24.63;;;14.02;;
42912;SDS011;50720;54.324;18.558;2023-02-15T08:36:56;25.08;;;14.85;;
42912;SDS011;50720;54.324;18.558;2023-02-15T08:39:26;27.30;;;14.25;;
42912;SDS011;50720;54.324;18.558;2023-02-15T08:41:56;24.73;;;13.07;;
42912;SDS011;50720;54.324;18.558;2023-02-15T08:44:26;27.17;;;13.80;;
42912;SDS011;50720;54.324;18.558;2023-02-15T08:46:58;28.88;;;15.43;;
42912;SDS011;50720;54.324;18.558;2023-02-15T08:49:31;22.77;;;14.88;;
42912;SDS011;50720;54.324;18.558;2023-02-15T08:52:01;28.60;;;14.07;;
42912;SDS011;50720;54.324;18.558;2023-02-15T08:54:31;24.30;;;13.98;;
42912;SDS011;50720;54.324;18.558;2023-02-15T08:57:00;25.02;;;15.07;;
42912;SDS011;50720;54.324;18.558;2023-02-15T08:59:30;24.80;;;12.93;;
42912;SDS011;50720;54.324;18.558;2023-02-15T09:02:01;23.58;;;13.40;;
42912;SDS011;50720;54.324;18.558;2023-02-15T09:04:31;27.98;;;15.45;;
42912;SDS011;50720;54.324;18.558;2023-02-15T09:07:00;22.05;;;12.85;;
42912;SDS011;50720;54.324;18.558;2023-02-15T09:09:31;31.23;;;15.38;;
42912;SDS011;50720;54.324;18.558;2023-02-15T09:12:01;25.58;;;14.32;;
42912;SDS011;50720;54.324;18.558;2023-02-15T09:14:30;35.80;;;17.08;;
42912;SDS011;50720;54.324;18.558;2023-02-15T09:17:01;30.58;;;16.02;;
42912;SDS011;50720;54.324;18.558;2023-02-15T09:22:00;24.45;;;12.75;;
42912;SDS011;50720;54.324;18.558;2023-02-15T09:24:31;27.45;;;14.00;;
42912;SDS011;50720;54.324;18.558;2023-02-15T09:27:00;21.50;;;13.07;;
42912;SDS011;50720;54.324;18.558;2023-02-15T09:29:30;23.20;;;13.18;;
42912;SDS011;50720;54.324;18.558;2023-02-15T09:32:02;22.17;;;11.15;;
42912;SDS011;50720;54.324;18.558;2023-02-15T09:34:32;19.33;;;11.35;;
42912;SDS011;50720;54.324;18.558;2023-02-15T09:37:02;22.50;;;11.80;;
42912;SDS011;50720;54.324;18.558;2023-02-15T09:39:33;21.95;;;12.25;;
42912;SDS011;50720;54.324;18.558;2023-02-15T09:42:17;20.63;;;10.82;;
42912;SDS011;50720;54.324;18.558;2023-02-15T09:45:14;19.65;;;12.07;;
42912;SDS011;50720;54.324;18.558;2023-02-15T09:51:01;21.33;;;12.48;;
42912;SDS011;50720;54.324;18.558;2023-02-15T09:53:50;22.23;;;12.20;;
42912;SDS011;50720;54.324;18.558;2023-02-15T09:56:33;21.33;;;12.63;;
42912;SDS011;50720;54.324;18.558;2023-02-15T09:59:10;23.13;;;12.55;;
42912;SDS011;50720;54.324;18.558;2023-02-15T10:01:48;21.67;;;11.18;;
42912;SDS011;50720;54.324;18.558;2023-02-15T10:04:34;19.00;;;11.88;;
42912;SDS011;50720;54.324;18.558;2023-02-15T10:07:30;22.83;;;12.38;;
42912;SDS011;50720;54.324;18.558;2023-02-15T10:10:15;24.92;;;14.73;;
42912;SDS011;50720;54.324;18.558;2023-02-15T10:12:57;26.00;;;13.45;;
42912;SDS011;50720;54.324;18.558;2023-02-15T10:15:46;30.23;;;15.80;;
42912;SDS011;50720;54.324;18.558;2023-02-15T10:21:26;24.08;;;14.13;;
42912;SDS011;50720;54.324;18.558;2023-02-15T10:24:19;22.60;;;13.98;;
42912;SDS011;50720;54.324;18.558;2023-02-15T10:27:07;22.67;;;13.75;;
42912;SDS011;50720;54.324;18.558;2023-02-15T10:29:42;28.48;;;13.82;;
42912;SDS011;50720;54.324;18.558;2023-02-15T10:32:21;26.95;;;14.73;;
42912;SDS011;50720;54.324;18.558;2023-02-15T10:34:52;30.42;;;15.60;;
42912;SDS011;50720;54.324;18.558;2023-02-15T10:40:33;26.98;;;14.75;;
42912;SDS011;50720;54.324;18.558;2023-02-15T10:43:15;30.67;;;14.98;;
42912;SDS011;50720;54.324;18.558;2023-02-15T10:45:55;25.13;;;14.05;;
42912;SDS011;50720;54.324;18.558;2023-02-15T10:48:38;27.48;;;15.48;;
42912;SDS011;50720;54.324;18.558;2023-02-15T10:51:34;24.83;;;13.80;;
42912;SDS011;50720;54.324;18.558;2023-02-15T10:54:15;25.67;;;15.43;;
42912;SDS011;50720;54.324;18.558;2023-02-15T10:56:56;25.23;;;15.20;;
42912;SDS011;50720;54.324;18.558;2023-02-15T10:59:42;31.88;;;16.00;;
42912;SDS011;50720;54.324;18.558;2023-02-15T11:02:30;29.17;;;15.55;;
42912;SDS011;50720;54.324;18.558;2023-02-15T11:05:16;24.88;;;15.10;;
42912;SDS011;50720;54.324;18.558;2023-02-15T11:07:54;28.83;;;15.93;;
42912;SDS011;50720;54.324;18.558;2023-02-15T11:10:28;34.95;;;14.88;;
42912;SDS011;50720;54.324;18.558;2023-02-15T11:13:06;30.20;;;15.25;;
42912;SDS011;50720;54.324;18.558;2023-02-15T11:15:39;26.38;;;15.75;;
42912;SDS011;50720;54.324;18.558;2023-02-15T11:18:13;28.45;;;16.83;;
42912;SDS011;50720;54.324;18.558;2023-02-15T11:20:49;28.95;;;16.48;;
42912;SDS011;50720;54.324;18.558;2023-02-15T11:23:24;28.17;;;16.77;;
42912;SDS011;50720;54.324;18.558;2023-02-15T11:25:56;28.88;;;17.10;;
42912;SDS011;50720;54.324;18.558;2023-02-15T11:28:31;35.70;;;17.60;;
42912;SDS011;50720;54.324;18.558;2023-02-15T11:31:16;28.73;;;17.20;;
42912;SDS011;50720;54.324;18.558;2023-02-15T11:33:49;28.88;;;17.33;;
42912;SDS011;50720;54.324;18.558;2023-02-15T11:36:22;27.80;;;16.25;;
42912;SDS011;50720;54.324;18.558;2023-02-15T11:38:56;29.13;;;16.83;;
42912;SDS011;50720;54.324;18.558;2023-02-15T11:41:31;29.33;;;17.13;;
42912;SDS011;50720;54.324;18.558;2023-02-15T11:44:10;28.15;;;17.17;;
42912;SDS011;50720;54.324;18.558;2023-02-15T11:46:44;31.67;;;18.15;;
42912;SDS011;50720;54.324;18.558;2023-02-15T11:49:18;32.83;;;18.33;;
42912;SDS011;50720;54.324;18.558;2023-02-15T11:51:51;28.27;;;17.38;;
42912;SDS011;50720;54.324;18.558;2023-02-15T11:54:24;29.35;;;17.35;;
42912;SDS011;50720;54.324;18.558;2023-02-15T11:56:56;30.90;;;16.83;;
42912;SDS011;50720;54.324;18.558;2023-02-15T11:59:44;31.05;;;17.83;;
42912;SDS011;50720;54.324;18.558;2023-02-15T12:02:19;32.50;;;19.23;;
42912;SDS011;50720;54.324;18.558;2023-02-15T12:04:51;36.70;;;18.13;;
42912;SDS011;50720;54.324;18.558;2023-02-15T12:07:24;33.38;;;18.08;;
42912;SDS011;50720;54.324;18.558;2023-02-15T12:09:59;31.70;;;17.42;;
42912;SDS011;50720;54.324;18.558;2023-02-15T12:12:34;32.10;;;18.75;;
42912;SDS011;50720;54.324;18.558;2023-02-15T12:15:06;30.77;;;17.42;;
42912;SDS011;50720;54.324;18.558;2023-02-15T12:17:38;28.55;;;16.02;;
42912;SDS011;50720;54.324;18.558;2023-02-15T12:20:20;31.35;;;17.52;;
42912;SDS011;50720;54.324;18.558;2023-02-15T12:22:54;33.28;;;16.70;;
42912;SDS011;50720;54.324;18.558;2023-02-15T12:25:33;26.42;;;15.43;;
42912;SDS011;50720;54.324;18.558;2023-02-15T12:30:56;25.98;;;16.40;;
42912;SDS011;50720;54.324;18.558;2023-02-15T12:33:28;25.42;;;15.20;;
42912;SDS011;50720;54.324;18.558;2023-02-15T12:36:03;24.67;;;15.82;;
42912;SDS011;50720;54.324;18.558;2023-02-15T12:38:40;28.27;;;15.82;;
42912;SDS011;50720;54.324;18.558;2023-02-15T12:41:21;22.70;;;15.00;;
42912;SDS011;50720;54.324;18.558;2023-02-15T12:44:03;31.63;;;17.13;;
42912;SDS011;50720;54.324;18.558;2023-02-15T12:46:41;24.40;;;16.08;;
42912;SDS011;50720;54.324;18.558;2023-02-15T12:49:24;30.40;;;16.00;;
42912;SDS011;50720;54.324;18.558;2023-02-15T12:51:55;26.13;;;17.27;;
42912;SDS011;50720;54.324;18.558;2023-02-15T12:59:54;28.77;;;14.80;;
42912;SDS011;50720;54.324;18.558;2023-02-15T13:02:29;30.60;;;16.40;;
42912;SDS011;50720;54.324;18.558;2023-02-15T13:05:05;25.17;;;15.63;;
42912;SDS011;50720;54.324;18.558;2023-02-15T13:07:46;30.75;;;17.33;;
42912;SDS011;50720;54.324;18.558;2023-02-15T13:10:23;25.55;;;16.83;;
42912;SDS011;50720;54.324;18.558;2023-02-15T13:12:55;27.80;;;17.73;;
42912;SDS011;50720;54.324;18.558;2023-02-15T13:15:27;30.58;;;18.77;;
42912;SDS011;50720;54.324;18.558;2023-02-15T13:18:04;30.42;;;16.27;;
42912;SDS011;50720;54.324;18.558;2023-02-15T13:20:39;31.90;;;17.42;;
42912;SDS011;50720;54.324;18.558;2023-02-15T13:23:18;26.70;;;15.98;;
42912;SDS011;50720;54.324;18.558;2023-02-15T13:25:56;27.90;;;18.38;;
42912;SDS011;50720;54.324;18.558;2023-02-15T13:28:30;25.50;;;15.40;;
42912;SDS011;50720;54.324;18.558;2023-02-15T13:31:07;27.65;;;16.67;;
42912;SDS011;50720;54.324;18.558;2023-02-15T13:33:44;28.35;;;16.10;;
42912;SDS011;50720;54.324;18.558;2023-02-15T13:36:20;31.27;;;16.55;;
42912;SDS011;50720;54.324;18.558;2023-02-15T13:39:05;26.98;;;15.60;;
42912;SDS011;50720;54.324;18.558;2023-02-15T13:41:46;30.17;;;17.35;;
42912;SDS011;50720;54.324;18.558;2023-02-15T13:44:24;29.08;;;17.42;;
42912;SDS011;50720;54.324;18.558;2023-02-15T13:47:17;30.33;;;17.73;;
42912;SDS011;50720;54.324;18.558;2023-02-15T13:49:54;34.92;;;18.58;;
42912;SDS011;50720;54.324;18.558;2023-02-15T13:52:39;35.58;;;20.67;;
42912;SDS011;50720;54.324;18.558;2023-02-15T13:55:28;32.30;;;18.90;;
42912;SDS011;50720;54.324;18.558;2023-02-15T13:58:18;44.70;;;24.63;;
42912;SDS011;50720;54.324;18.558;2023-02-15T14:01:08;28.40;;;16.60;;
42912;SDS011;50720;54.324;18.558;2023-02-15T14:03:51;32.88;;;17.30;;
42912;SDS011;50720;54.324;18.558;2023-02-15T14:06:40;28.33;;;18.17;;
42912;SDS011;50720;54.324;18.558;2023-02-15T14:09:38;24.63;;;16.80;;
42912;SDS011;50720;54.324;18.558;2023-02-15T14:15:18;31.88;;;18.55;;
42912;SDS011;50720;54.324;18.558;2023-02-15T14:17:58;34.28;;;20.67;;
42912;SDS011;50720;54.324;18.558;2023-02-15T14:20:45;31.20;;;18.63;;
42912;SDS011;50720;54.324;18.558;2023-02-15T14:23:28;32.00;;;19.73;;
42912;SDS011;50720;54.324;18.558;2023-02-15T14:26:12;39.80;;;20.13;;
42912;SDS011;50720;54.324;18.558;2023-02-15T14:28:46;29.98;;;19.05;;
42912;SDS011;50720;54.324;18.558;2023-02-15T14:31:25;37.95;;;18.35;;
42912;SDS011;50720;54.324;18.558;2023-02-15T14:34:00;36.30;;;21.20;;
42912;SDS011;50720;54.324;18.558;2023-02-15T14:39:06;42.10;;;20.77;;
42912;SDS011;50720;54.324;18.558;2023-02-15T14:42:09;35.17;;;20.00;;
42912;SDS011;50720;54.324;18.558;2023-02-15T14:44:44;32.78;;;20.83;;
42912;SDS011;50720;54.324;18.558;2023-02-15T14:47:21;37.40;;;21.17;;
42912;SDS011;50720;54.324;18.558;2023-02-15T14:49:53;36.78;;;20.17;;
42912;SDS011;50720;54.324;18.558;2023-02-15T14:52:23;35.88;;;21.05;;
42912;SDS011;50720;54.324;18.558;2023-02-15T14:54:55;36.28;;;23.10;;
42912;SDS011;50720;54.324;18.558;2023-02-15T14:57:32;33.78;;;21.25;;
42912;SDS011;50720;54.324;18.558;2023-02-15T15:02:59;38.80;;;23.08;;
42912;SDS011;50720;54.324;18.558;2023-02-15T15:05:32;41.80;;;25.30;;
42912;SDS011;50720;54.324;18.558;2023-02-15T15:08:04;42.00;;;24.25;;
42912;SDS011;50720;54.324;18.558;2023-02-15T15:10:37;52.90;;;27.85;;
42912;SDS011;50720;54.324;18.558;2023-02-15T15:19:09;51.90;;;25.92;;
42912;SDS011;50720;54.324;18.558;2023-02-15T15:21:51;47.40;;;26.67;;
42912;SDS011;50720;54.324;18.558;2023-02-15T15:27:42;50.08;;;25.95;;
42912;SDS011;50720;54.324;18.558;2023-02-15T15:40:17;59.05;;;28.92;;
42912;SDS011;50720;54.324;18.558;2023-02-15T15:43:32;47.40;;;24.73;;
42912;SDS011;50720;54.324;18.558;2023-02-15T15:49:15;50.78;;;25.75;;
42912;SDS011;50720;54.324;18.558;2023-02-15T15:51:46;41.88;;;24.70;;
42912;SDS011;50720;54.324;18.558;2023-02-15T15:54:18;46.58;;;25.30;;
42912;SDS011;50720;54.324;18.558;2023-02-15T15:56:49;49.78;;;26.42;;
42912;SDS011;50720;54.324;18.558;2023-02-15T15:59:24;69.18;;;38.30;;
42912;SDS011;50720;54.324;18.558;2023-02-15T16:01:54;78.50;;;41.85;;
42912;SDS011;50720;54.324;18.558;2023-02-15T16:04:25;55.25;;;28.42;;
42912;SDS011;50720;54.324;18.558;2023-02-15T16:06:57;55.13;;;29.83;;